sensor_id;sensor_type;location;lat;lon;timestamp;temperature;humidity
76936;DHT22;65881;52.438;16.744;2022-12-24T00:02:18;4.20;99.90
76936;DHT22;65881;52.438;16.744;2022-12-24T00:04:44;4.20;99.90
76936;DHT22;65881;52.438;16.744;2022-12-24T00:07:22;4.20;99.90
76936;DHT22;65881;52.438;16.744;2022-12-24T00:09:57;4.10;99.90
76936;DHT22;65881;52.438;16.744;2022-12-24T00:12:23;4.10;99.90
76936;DHT22;65881;52.438;16.744;2022-12-24T00:14:48;4.10;99.90
76936;DHT22;65881;52.438;16.744;2022-12-24T00:17:17;4.10;99.90
76936;DHT22;65881;52.438;16.744;2022-12-24T00:19:42;4.10;99.90
76936;DHT22;65881;52.438;16.744;2022-12-24T00:22:11;4.10;99.90
76936;DHT22;65881;52.438;16.744;2022-12-24T00:24:37;4.10;99.90
76936;DHT22;65881;52.438;16.744;2022-12-24T00:27:03;4.10;99.90
76936;DHT22;65881;52.438;16.744;2022-12-24T00:29:30;4.10;99.90
76936;DHT22;65881;52.438;16.744;2022-12-24T00:32:05;4.10;99.90
76936;DHT22;65881;52.438;16.744;2022-12-24T00:34:35;4.10;99.90
76936;DHT22;65881;52.438;16.744;2022-12-24T00:37:02;4.10;99.90
76936;DHT22;65881;52.438;16.744;2022-12-24T00:39:53;4.20;99.90
76936;DHT22;65881;52.438;16.744;2022-12-24T00:42:39;4.10;99.90
76936;DHT22;65881;52.438;16.744;2022-12-24T00:45:13;4.20;99.90
76936;DHT22;65881;52.438;16.744;2022-12-24T00:47:42;4.10;99.90
76936;DHT22;65881;52.438;16.744;2022-12-24T00:50:08;4.10;99.90
76936;DHT22;65881;52.438;16.744;2022-12-24T00:52:40;4.10;99.90
76936;DHT22;65881;52.438;16.744;2022-12-24T00:55:06;4.10;99.90
76936;DHT22;65881;52.438;16.744;2022-12-24T00:57:32;4.10;99.90
76936;DHT22;65881;52.438;16.744;2022-12-24T00:59:58;4.10;99.90
76936;DHT22;65881;52.438;16.744;2022-12-24T01:02:27;4.10;99.90
76936;DHT22;65881;52.438;16.744;2022-12-24T01:04:56;4.10;99.90
76936;DHT22;65881;52.438;16.744;2022-12-24T01:07:46;4.10;99.90
76936;DHT22;65881;52.438;16.744;2022-12-24T01:10:21;4.00;99.90
76936;DHT22;65881;52.438;16.744;2022-12-24T01:12:50;4.10;99.90
76936;DHT22;65881;52.438;16.744;2022-12-24T01:15:16;4.00;99.90
76936;DHT22;65881;52.438;16.744;2022-12-24T01:27:40;4.00;99.90
76936;DHT22;65881;52.438;16.744;2022-12-24T01:30:10;4.00;99.90
76936;DHT22;65881;52.438;16.744;2022-12-24T01:32:37;4.00;99.90
76936;DHT22;65881;52.438;16.744;2022-12-24T01:35:03;4.00;99.90
76936;DHT22;65881;52.438;16.744;2022-12-24T01:37:30;4.00;99.90
76936;DHT22;65881;52.438;16.744;2022-12-24T01:40:02;4.00;99.90
76936;DHT22;65881;52.438;16.744;2022-12-24T01:42:56;4.00;99.90
76936;DHT22;65881;52.438;16.744;2022-12-24T01:48:38;4.00;99.90
76936;DHT22;65881;52.438;16.744;2022-12-24T01:53:33;4.00;99.90
76936;DHT22;65881;52.438;16.744;2022-12-24T01:56:00;4.00;99.90
76936;DHT22;65881;52.438;16.744;2022-12-24T01:58:27;4.00;99.90
76936;DHT22;65881;52.438;16.744;2022-12-24T02:01:04;4.00;99.90
76936;DHT22;65881;52.438;16.744;2022-12-24T02:03:39;4.00;99.90
76936;DHT22;65881;52.438;16.744;2022-12-24T02:06:16;4.00;99.90
76936;DHT22;65881;52.438;16.744;2022-12-24T02:08:44;4.00;99.90
76936;DHT22;65881;52.438;16.744;2022-12-24T02:11:15;4.00;99.90
76936;DHT22;65881;52.438;16.744;2022-12-24T02:13:46;4.00;99.90
76936;DHT22;65881;52.438;16.744;2022-12-24T02:33:53;4.00;99.90
76936;DHT22;65881;52.438;16.744;2022-12-24T02:39:46;4.00;99.90
76936;DHT22;65881;52.438;16.744;2022-12-24T02:42:26;4.00;99.90
76936;DHT22;65881;52.438;16.744;2022-12-24T02:45:10;4.00;99.90
76936;DHT22;65881;52.438;16.744;2022-12-24T02:47:53;4.00;99.90
76936;DHT22;65881;52.438;16.744;2022-12-24T02:50:19;4.00;99.90
76936;DHT22;65881;52.438;16.744;2022-12-24T02:52:47;4.00;99.90
76936;DHT22;65881;52.438;16.744;2022-12-24T02:55:20;4.00;99.90
76936;DHT22;65881;52.438;16.744;2022-12-24T03:00:18;4.00;99.90
76936;DHT22;65881;52.438;16.744;2022-12-24T03:05:47;4.00;99.90
76936;DHT22;65881;52.438;16.744;2022-12-24T03:11:14;4.00;99.90
76936;DHT22;65881;52.438;16.744;2022-12-24T03:13:41;4.00;99.90
76936;DHT22;65881;52.438;16.744;2022-12-24T03:16:14;4.00;99.90
76936;DHT22;65881;52.438;16.744;2022-12-24T03:18:46;4.00;99.90
76936;DHT22;65881;52.438;16.744;2022-12-24T03:21:27;4.00;99.90
76936;DHT22;65881;52.438;16.744;2022-12-24T03:23:54;4.00;99.90
76936;DHT22;65881;52.438;16.744;2022-12-24T03:26:20;4.00;99.90
76936;DHT22;65881;52.438;16.744;2022-12-24T03:28:47;3.90;99.90
76936;DHT22;65881;52.438;16.744;2022-12-24T03:31:14;3.90;99.90
76936;DHT22;65881;52.438;16.744;2022-12-24T03:33:40;3.90;99.90
76936;DHT22;65881;52.438;16.744;2022-12-24T03:36:15;3.90;99.90
76936;DHT22;65881;52.438;16.744;2022-12-24T03:38:44;3.90;99.90
76936;DHT22;65881;52.438;16.744;2022-12-24T03:41:22;3.90;99.90
76936;DHT22;65881;52.438;16.744;2022-12-24T03:43:47;3.90;99.90
76936;DHT22;65881;52.438;16.744;2022-12-24T03:46:13;3.90;99.90
76936;DHT22;65881;52.438;16.744;2022-12-24T03:48:39;3.90;99.90
76936;DHT22;65881;52.438;16.744;2022-12-24T03:51:18;3.90;99.90
76936;DHT22;65881;52.438;16.744;2022-12-24T03:53:44;3.90;99.90
76936;DHT22;65881;52.438;16.744;2022-12-24T03:56:10;3.90;99.90
76936;DHT22;65881;52.438;16.744;2022-12-24T03:58:45;3.90;99.90
76936;DHT22;65881;52.438;16.744;2022-12-24T04:01:11;3.90;99.90
76936;DHT22;65881;52.438;16.744;2022-12-24T04:04:02;3.90;99.90
76936;DHT22;65881;52.438;16.744;2022-12-24T04:06:28;3.90;99.90
76936;DHT22;65881;52.438;16.744;2022-12-24T04:08:53;3.90;99.90
76936;DHT22;65881;52.438;16.744;2022-12-24T04:11:19;3.80;99.90
76936;DHT22;65881;52.438;16.744;2022-12-24T04:13:45;3.90;99.90
76936;DHT22;65881;52.438;16.744;2022-12-24T04:16:15;3.80;99.90
76936;DHT22;65881;52.438;16.744;2022-12-24T04:18:41;3.80;99.90
76936;DHT22;65881;52.438;16.744;2022-12-24T04:21:08;3.80;99.90
76936;DHT22;65881;52.438;16.744;2022-12-24T04:23:36;3.70;99.90
76936;DHT22;65881;52.438;16.744;2022-12-24T04:26:03;3.70;99.90
76936;DHT22;65881;52.438;16.744;2022-12-24T04:28:30;3.70;99.90
76936;DHT22;65881;52.438;16.744;2022-12-24T04:31:03;3.70;99.90
76936;DHT22;65881;52.438;16.744;2022-12-24T04:33:29;3.70;99.90
76936;DHT22;65881;52.438;16.744;2022-12-24T04:36:00;3.70;99.90
76936;DHT22;65881;52.438;16.744;2022-12-24T04:38:26;3.70;99.90
76936;DHT22;65881;52.438;16.744;2022-12-24T04:41:07;3.70;99.90
76936;DHT22;65881;52.438;16.744;2022-12-24T04:43:34;3.70;99.90
76936;DHT22;65881;52.438;16.744;2022-12-24T04:46:05;3.70;99.90
76936;DHT22;65881;52.438;16.744;2022-12-24T04:48:32;3.70;99.90
76936;DHT22;65881;52.438;16.744;2022-12-24T04:51:00;3.70;99.90
76936;DHT22;65881;52.438;16.744;2022-12-24T04:53:27;3.60;99.90
76936;DHT22;65881;52.438;16.744;2022-12-24T04:55:53;3.60;99.90
76936;DHT22;65881;52.438;16.744;2022-12-24T04:58:19;3.60;99.90
76936;DHT22;65881;52.438;16.744;2022-12-24T05:00:44;3.60;99.90
76936;DHT22;65881;52.438;16.744;2022-12-24T05:03:12;3.60;99.90
76936;DHT22;65881;52.438;16.744;2022-12-24T05:05:38;3.60;99.90
76936;DHT22;65881;52.438;16.744;2022-12-24T05:08:04;3.60;99.90
76936;DHT22;65881;52.438;16.744;2022-12-24T05:10:29;3.50;99.90
76936;DHT22;65881;52.438;16.744;2022-12-24T05:13:03;3.50;99.90
76936;DHT22;65881;52.438;16.744;2022-12-24T05:15:32;3.60;99.90
76936;DHT22;65881;52.438;16.744;2022-12-24T05:17:57;3.50;99.90
76936;DHT22;65881;52.438;16.744;2022-12-24T05:20:39;3.50;99.90
76936;DHT22;65881;52.438;16.744;2022-12-24T05:23:18;3.50;99.90
76936;DHT22;65881;52.438;16.744;2022-12-24T05:26:03;3.50;99.90
76936;DHT22;65881;52.438;16.744;2022-12-24T05:28:52;3.50;99.90
76936;DHT22;65881;52.438;16.744;2022-12-24T05:31:18;3.50;99.90
76936;DHT22;65881;52.438;16.744;2022-12-24T05:33:45;3.50;99.90
76936;DHT22;65881;52.438;16.744;2022-12-24T05:36:10;3.50;99.90
76936;DHT22;65881;52.438;16.744;2022-12-24T05:39:06;3.50;99.90
76936;DHT22;65881;52.438;16.744;2022-12-24T05:41:33;3.50;99.90
76936;DHT22;65881;52.438;16.744;2022-12-24T05:44:11;3.50;99.90
76936;DHT22;65881;52.438;16.744;2022-12-24T05:46:37;3.50;99.90
76936;DHT22;65881;52.438;16.744;2022-12-24T05:49:03;3.50;99.90
76936;DHT22;65881;52.438;16.744;2022-12-24T05:51:32;3.50;99.90
76936;DHT22;65881;52.438;16.744;2022-12-24T05:54:04;3.50;99.90
76936;DHT22;65881;52.438;16.744;2022-12-24T05:56:41;3.50;99.90
76936;DHT22;65881;52.438;16.744;2022-12-24T05:59:10;3.50;99.90
76936;DHT22;65881;52.438;16.744;2022-12-24T06:01:36;3.50;99.90
76936;DHT22;65881;52.438;16.744;2022-12-24T06:04:01;3.40;99.90
76936;DHT22;65881;52.438;16.744;2022-12-24T06:06:27;3.50;99.90
76936;DHT22;65881;52.438;16.744;2022-12-24T06:08:54;3.50;99.90
76936;DHT22;65881;52.438;16.744;2022-12-24T06:11:22;3.40;99.90
76936;DHT22;65881;52.438;16.744;2022-12-24T06:13:54;3.40;99.90
76936;DHT22;65881;52.438;16.744;2022-12-24T06:16:24;3.30;99.90
76936;DHT22;65881;52.438;16.744;2022-12-24T06:18:50;3.30;99.90
76936;DHT22;65881;52.438;16.744;2022-12-24T06:21:17;3.30;99.90
76936;DHT22;65881;52.438;16.744;2022-12-24T06:23:43;3.30;99.90
76936;DHT22;65881;52.438;16.744;2022-12-24T06:26:12;3.30;99.90
76936;DHT22;65881;52.438;16.744;2022-12-24T06:28:39;3.30;99.90
76936;DHT22;65881;52.438;16.744;2022-12-24T06:31:05;3.30;99.90
76936;DHT22;65881;52.438;16.744;2022-12-24T06:33:32;3.30;99.90
76936;DHT22;65881;52.438;16.744;2022-12-24T06:35:58;3.30;99.90
76936;DHT22;65881;52.438;16.744;2022-12-24T06:38:24;3.30;99.90
76936;DHT22;65881;52.438;16.744;2022-12-24T06:40:50;3.30;99.90
76936;DHT22;65881;52.438;16.744;2022-12-24T06:43:16;3.30;99.90
76936;DHT22;65881;52.438;16.744;2022-12-24T06:45:48;3.30;99.90
76936;DHT22;65881;52.438;16.744;2022-12-24T06:48:15;3.20;99.90
76936;DHT22;65881;52.438;16.744;2022-12-24T06:50:40;3.20;99.90
76936;DHT22;65881;52.438;16.744;2022-12-24T06:53:06;3.20;99.90
76936;DHT22;65881;52.438;16.744;2022-12-24T06:55:32;3.20;99.90
76936;DHT22;65881;52.438;16.744;2022-12-24T06:57:58;3.20;99.90
76936;DHT22;65881;52.438;16.744;2022-12-24T07:00:24;3.20;99.90
76936;DHT22;65881;52.438;16.744;2022-12-24T07:02:49;3.20;99.90
76936;DHT22;65881;52.438;16.744;2022-12-24T07:05:15;3.10;99.90
76936;DHT22;65881;52.438;16.744;2022-12-24T07:07:43;3.10;99.90
76936;DHT22;65881;52.438;16.744;2022-12-24T07:10:14;3.10;99.90
76936;DHT22;65881;52.438;16.744;2022-12-24T07:12:40;3.10;99.90
76936;DHT22;65881;52.438;16.744;2022-12-24T07:15:16;3.10;99.90
76936;DHT22;65881;52.438;16.744;2022-12-24T07:17:42;3.10;99.90
76936;DHT22;65881;52.438;16.744;2022-12-24T07:20:11;3.10;99.90
76936;DHT22;65881;52.438;16.744;2022-12-24T07:22:40;3.10;99.90
76936;DHT22;65881;52.438;16.744;2022-12-24T07:25:06;3.10;99.90
76936;DHT22;65881;52.438;16.744;2022-12-24T07:27:32;3.10;99.90
76936;DHT22;65881;52.438;16.744;2022-12-24T07:29:58;3.10;99.90
76936;DHT22;65881;52.438;16.744;2022-12-24T07:32:23;3.10;99.90
76936;DHT22;65881;52.438;16.744;2022-12-24T07:34:58;3.10;99.90
76936;DHT22;65881;52.438;16.744;2022-12-24T07:37:24;3.10;99.90
76936;DHT22;65881;52.438;16.744;2022-12-24T07:39:50;3.10;99.90
76936;DHT22;65881;52.438;16.744;2022-12-24T07:42:15;3.10;99.90
76936;DHT22;65881;52.438;16.744;2022-12-24T07:44:41;3.10;99.90
76936;DHT22;65881;52.438;16.744;2022-12-24T07:47:07;3.10;99.90
76936;DHT22;65881;52.438;16.744;2022-12-24T07:49:33;3.10;99.90
76936;DHT22;65881;52.438;16.744;2022-12-24T07:52:02;3.10;99.90
76936;DHT22;65881;52.438;16.744;2022-12-24T07:54:28;3.10;99.90
76936;DHT22;65881;52.438;16.744;2022-12-24T07:56:54;3.10;99.90
76936;DHT22;65881;52.438;16.744;2022-12-24T07:59:26;3.10;99.90
76936;DHT22;65881;52.438;16.744;2022-12-24T08:01:54;3.10;99.90
76936;DHT22;65881;52.438;16.744;2022-12-24T08:04:32;3.10;99.90
76936;DHT22;65881;52.438;16.744;2022-12-24T08:07:05;3.10;99.90
76936;DHT22;65881;52.438;16.744;2022-12-24T08:09:36;3.10;99.90
76936;DHT22;65881;52.438;16.744;2022-12-24T08:12:05;3.10;99.90
76936;DHT22;65881;52.438;16.744;2022-12-24T08:14:41;3.10;99.90
76936;DHT22;65881;52.438;16.744;2022-12-24T08:17:16;3.10;99.90
76936;DHT22;65881;52.438;16.744;2022-12-24T08:19:51;3.10;99.90
76936;DHT22;65881;52.438;16.744;2022-12-24T08:22:31;3.10;99.90
76936;DHT22;65881;52.438;16.744;2022-12-24T08:24:57;3.10;99.90
76936;DHT22;65881;52.438;16.744;2022-12-24T08:27:26;3.10;99.90
76936;DHT22;65881;52.438;16.744;2022-12-24T08:29:51;3.10;99.90
76936;DHT22;65881;52.438;16.744;2022-12-24T08:32:17;3.10;99.90
76936;DHT22;65881;52.438;16.744;2022-12-24T08:34:43;3.10;99.90
76936;DHT22;65881;52.438;16.744;2022-12-24T08:37:09;3.20;99.90
76936;DHT22;65881;52.438;16.744;2022-12-24T08:39:34;3.30;99.90
76936;DHT22;65881;52.438;16.744;2022-12-24T08:42:03;3.20;99.90
76936;DHT22;65881;52.438;16.744;2022-12-24T08:44:47;3.20;99.90
76936;DHT22;65881;52.438;16.744;2022-12-24T08:47:16;3.30;99.90
76936;DHT22;65881;52.438;16.744;2022-12-24T08:49:44;3.30;99.90
76936;DHT22;65881;52.438;16.744;2022-12-24T08:52:13;3.30;99.90
76936;DHT22;65881;52.438;16.744;2022-12-24T08:54:39;3.30;99.90
76936;DHT22;65881;52.438;16.744;2022-12-24T08:57:05;3.30;99.90
76936;DHT22;65881;52.438;16.744;2022-12-24T08:59:30;3.30;99.90
76936;DHT22;65881;52.438;16.744;2022-12-24T09:01:56;3.30;99.90
76936;DHT22;65881;52.438;16.744;2022-12-24T09:04:30;3.30;99.90
76936;DHT22;65881;52.438;16.744;2022-12-24T09:07:08;3.30;99.90
76936;DHT22;65881;52.438;16.744;2022-12-24T09:16:07;3.30;99.90
76936;DHT22;65881;52.438;16.744;2022-12-24T09:18:34;3.40;99.90
76936;DHT22;65881;52.438;16.744;2022-12-24T09:21:06;3.30;99.90
76936;DHT22;65881;52.438;16.744;2022-12-24T09:23:35;3.40;99.90
76936;DHT22;65881;52.438;16.744;2022-12-24T09:26:14;3.50;99.90
76936;DHT22;65881;52.438;16.744;2022-12-24T09:28:40;3.50;99.90
76936;DHT22;65881;52.438;16.744;2022-12-24T09:31:18;3.50;99.90
76936;DHT22;65881;52.438;16.744;2022-12-24T09:36:11;3.50;99.90
76936;DHT22;65881;52.438;16.744;2022-12-24T09:38:37;3.50;99.90
76936;DHT22;65881;52.438;16.744;2022-12-24T09:41:59;3.50;99.90
76936;DHT22;65881;52.438;16.744;2022-12-24T09:44:40;3.50;99.90
76936;DHT22;65881;52.438;16.744;2022-12-24T09:49:58;3.60;99.90
76936;DHT22;65881;52.438;16.744;2022-12-24T09:52:33;3.60;99.90
76936;DHT22;65881;52.438;16.744;2022-12-24T09:55:39;3.60;99.90
76936;DHT22;65881;52.438;16.744;2022-12-24T09:58:36;3.60;99.90
76936;DHT22;65881;52.438;16.744;2022-12-24T10:01:09;3.60;99.90
76936;DHT22;65881;52.438;16.744;2022-12-24T10:03:46;3.60;99.90
76936;DHT22;65881;52.438;16.744;2022-12-24T10:06:23;3.70;99.90
76936;DHT22;65881;52.438;16.744;2022-12-24T10:20:17;3.70;99.90
76936;DHT22;65881;52.438;16.744;2022-12-24T10:23:27;3.80;99.90
76936;DHT22;65881;52.438;16.744;2022-12-24T10:26:44;3.70;99.90
76936;DHT22;65881;52.438;16.744;2022-12-24T10:29:17;3.80;99.90
76936;DHT22;65881;52.438;16.744;2022-12-24T10:34:37;3.80;99.90
76936;DHT22;65881;52.438;16.744;2022-12-24T10:37:05;3.90;99.90
76936;DHT22;65881;52.438;16.744;2022-12-24T10:39:31;3.90;99.90
76936;DHT22;65881;52.438;16.744;2022-12-24T10:41:58;3.90;99.90
76936;DHT22;65881;52.438;16.744;2022-12-24T10:44:33;3.90;99.90
76936;DHT22;65881;52.438;16.744;2022-12-24T10:46:59;3.90;99.90
76936;DHT22;65881;52.438;16.744;2022-12-24T10:49:44;3.80;99.90
76936;DHT22;65881;52.438;16.744;2022-12-24T10:52:14;3.80;99.90
76936;DHT22;65881;52.438;16.744;2022-12-24T10:55:09;3.90;99.90
76936;DHT22;65881;52.438;16.744;2022-12-24T10:57:39;3.90;99.90
76936;DHT22;65881;52.438;16.744;2022-12-24T11:00:06;3.90;99.90
76936;DHT22;65881;52.438;16.744;2022-12-24T11:02:43;3.90;99.90
76936;DHT22;65881;52.438;16.744;2022-12-24T11:05:29;3.90;99.90
76936;DHT22;65881;52.438;16.744;2022-12-24T11:08:21;3.90;99.90
76936;DHT22;65881;52.438;16.744;2022-12-24T11:10:58;4.00;99.90
76936;DHT22;65881;52.438;16.744;2022-12-24T11:18:47;3.90;99.90
76936;DHT22;65881;52.438;16.744;2022-12-24T11:21:35;4.00;99.90
76936;DHT22;65881;52.438;16.744;2022-12-24T11:26:42;3.90;99.90
76936;DHT22;65881;52.438;16.744;2022-12-24T11:29:27;3.90;99.90
76936;DHT22;65881;52.438;16.744;2022-12-24T11:32:16;3.90;99.90
76936;DHT22;65881;52.438;16.744;2022-12-24T11:34:43;3.90;99.90
76936;DHT22;65881;52.438;16.744;2022-12-24T11:37:23;3.90;99.90
76936;DHT22;65881;52.438;16.744;2022-12-24T11:39:53;3.90;99.90
76936;DHT22;65881;52.438;16.744;2022-12-24T11:42:51;3.90;99.90
76936;DHT22;65881;52.438;16.744;2022-12-24T11:45:26;3.90;99.90
76936;DHT22;65881;52.438;16.744;2022-12-24T11:47:54;3.90;99.90
76936;DHT22;65881;52.438;16.744;2022-12-24T11:50:31;3.90;99.90
76936;DHT22;65881;52.438;16.744;2022-12-24T11:58:41;3.90;99.90
76936;DHT22;65881;52.438;16.744;2022-12-24T12:01:34;3.90;99.90
76936;DHT22;65881;52.438;16.744;2022-12-24T12:04:32;3.90;99.90
76936;DHT22;65881;52.438;16.744;2022-12-24T12:07:35;3.90;99.90
76936;DHT22;65881;52.438;16.744;2022-12-24T12:10:19;3.90;99.90
76936;DHT22;65881;52.438;16.744;2022-12-24T12:13:13;3.90;99.90
76936;DHT22;65881;52.438;16.744;2022-12-24T12:16:04;3.90;99.90
76936;DHT22;65881;52.438;16.744;2022-12-24T12:18:35;3.90;99.90
76936;DHT22;65881;52.438;16.744;2022-12-24T12:21:07;3.90;99.90
76936;DHT22;65881;52.438;16.744;2022-12-24T12:23:57;3.90;99.90
76936;DHT22;65881;52.438;16.744;2022-12-24T12:26:33;3.90;99.90
76936;DHT22;65881;52.438;16.744;2022-12-24T12:29:26;3.90;99.90
76936;DHT22;65881;52.438;16.744;2022-12-24T12:32:20;3.90;99.90
76936;DHT22;65881;52.438;16.744;2022-12-24T12:35:32;3.90;99.90
76936;DHT22;65881;52.438;16.744;2022-12-24T12:38:13;3.90;99.90
76936;DHT22;65881;52.438;16.744;2022-12-24T12:58:42;3.90;99.90
76936;DHT22;65881;52.438;16.744;2022-12-24T13:01:18;3.90;99.90
76936;DHT22;65881;52.438;16.744;2022-12-24T13:04:19;3.90;99.90
76936;DHT22;65881;52.438;16.744;2022-12-24T13:06:56;4.00;99.90
76936;DHT22;65881;52.438;16.744;2022-12-24T13:21:11;3.90;99.90
76936;DHT22;65881;52.438;16.744;2022-12-24T13:23:40;3.90;99.90
76936;DHT22;65881;52.438;16.744;2022-12-24T13:26:11;3.90;99.90
76936;DHT22;65881;52.438;16.744;2022-12-24T13:28:37;3.90;99.90
76936;DHT22;65881;52.438;16.744;2022-12-24T13:31:25;3.80;99.90
76936;DHT22;65881;52.438;16.744;2022-12-24T13:33:59;3.80;99.90
76936;DHT22;65881;52.438;16.744;2022-12-24T13:37:11;3.70;99.90
76936;DHT22;65881;52.438;16.744;2022-12-24T13:50:52;3.80;99.90
76936;DHT22;65881;52.438;16.744;2022-12-24T13:53:42;3.80;99.90
76936;DHT22;65881;52.438;16.744;2022-12-24T13:58:44;3.70;99.90
76936;DHT22;65881;52.438;16.744;2022-12-24T14:01:16;3.70;99.90
76936;DHT22;65881;52.438;16.744;2022-12-24T14:03:46;3.70;99.90
76936;DHT22;65881;52.438;16.744;2022-12-24T14:06:25;3.70;99.90
76936;DHT22;65881;52.438;16.744;2022-12-24T14:08:55;3.70;99.90
76936;DHT22;65881;52.438;16.744;2022-12-24T14:11:24;3.70;99.90
76936;DHT22;65881;52.438;16.744;2022-12-24T14:16:43;3.60;99.90
76936;DHT22;65881;52.438;16.744;2022-12-24T14:21:55;3.60;99.90
76936;DHT22;65881;52.438;16.744;2022-12-24T14:24:35;3.60;99.90
76936;DHT22;65881;52.438;16.744;2022-12-24T14:27:27;3.50;99.90
76936;DHT22;65881;52.438;16.744;2022-12-24T14:30:12;3.50;99.90
76936;DHT22;65881;52.438;16.744;2022-12-24T14:32:40;3.50;99.90
76936;DHT22;65881;52.438;16.744;2022-12-24T14:37:32;3.50;99.90
76936;DHT22;65881;52.438;16.744;2022-12-24T14:39:58;3.50;99.90
76936;DHT22;65881;52.438;16.744;2022-12-24T14:42:49;3.40;99.90
76936;DHT22;65881;52.438;16.744;2022-12-24T14:45:40;3.50;99.90
76936;DHT22;65881;52.438;16.744;2022-12-24T14:48:25;3.40;99.90
76936;DHT22;65881;52.438;16.744;2022-12-24T14:53:53;3.30;99.90
76936;DHT22;65881;52.438;16.744;2022-12-24T14:56:24;3.30;99.90
76936;DHT22;65881;52.438;16.744;2022-12-24T14:58:50;3.30;99.90
76936;DHT22;65881;52.438;16.744;2022-12-24T15:01:23;3.30;99.90
76936;DHT22;65881;52.438;16.744;2022-12-24T15:06:45;3.30;99.90
76936;DHT22;65881;52.438;16.744;2022-12-24T15:09:23;3.30;99.90
76936;DHT22;65881;52.438;16.744;2022-12-24T15:11:55;3.30;99.90
76936;DHT22;65881;52.438;16.744;2022-12-24T15:14:26;3.30;99.90
76936;DHT22;65881;52.438;16.744;2022-12-24T15:17:03;3.30;99.90
76936;DHT22;65881;52.438;16.744;2022-12-24T15:19:38;3.30;99.90
76936;DHT22;65881;52.438;16.744;2022-12-24T15:22:11;3.30;99.90
76936;DHT22;65881;52.438;16.744;2022-12-24T15:24:46;3.30;99.90
76936;DHT22;65881;52.438;16.744;2022-12-24T15:27:23;3.30;99.90
76936;DHT22;65881;52.438;16.744;2022-12-24T15:29:55;3.20;99.90
76936;DHT22;65881;52.438;16.744;2022-12-24T15:32:21;3.20;99.90
76936;DHT22;65881;52.438;16.744;2022-12-24T15:34:53;3.20;99.90
76936;DHT22;65881;52.438;16.744;2022-12-24T15:37:34;3.20;99.90
76936;DHT22;65881;52.438;16.744;2022-12-24T15:42:34;3.20;99.90
76936;DHT22;65881;52.438;16.744;2022-12-24T15:45:21;3.30;99.90
76936;DHT22;65881;52.438;16.744;2022-12-24T15:47:56;3.20;99.90
76936;DHT22;65881;52.438;16.744;2022-12-24T15:50:42;3.30;99.90
76936;DHT22;65881;52.438;16.744;2022-12-24T15:53:13;3.30;99.90
76936;DHT22;65881;52.438;16.744;2022-12-24T15:55:47;3.30;99.90
76936;DHT22;65881;52.438;16.744;2022-12-24T15:58:30;3.30;99.90
76936;DHT22;65881;52.438;16.744;2022-12-24T16:01:05;3.30;99.90
76936;DHT22;65881;52.438;16.744;2022-12-24T16:06:14;3.30;99.90
76936;DHT22;65881;52.438;16.744;2022-12-24T16:08:41;3.30;99.90
76936;DHT22;65881;52.438;16.744;2022-12-24T16:11:23;3.20;99.90
76936;DHT22;65881;52.438;16.744;2022-12-24T16:16:36;3.20;99.90
76936;DHT22;65881;52.438;16.744;2022-12-24T16:19:04;3.10;99.90
76936;DHT22;65881;52.438;16.744;2022-12-24T16:21:39;3.20;99.90
76936;DHT22;65881;52.438;16.744;2022-12-24T16:24:06;3.10;99.90
76936;DHT22;65881;52.438;16.744;2022-12-24T16:26:36;3.10;99.90
76936;DHT22;65881;52.438;16.744;2022-12-24T16:29:27;3.10;99.90
76936;DHT22;65881;52.438;16.744;2022-12-24T16:31:55;3.10;99.90
76936;DHT22;65881;52.438;16.744;2022-12-24T16:34:28;3.10;99.90
76936;DHT22;65881;52.438;16.744;2022-12-24T16:36:55;3.10;99.90
76936;DHT22;65881;52.438;16.744;2022-12-24T16:39:25;3.10;99.90
76936;DHT22;65881;52.438;16.744;2022-12-24T16:41:57;3.10;99.90
76936;DHT22;65881;52.438;16.744;2022-12-24T16:44:42;3.10;99.90
76936;DHT22;65881;52.438;16.744;2022-12-24T16:47:31;3.00;99.90
76936;DHT22;65881;52.438;16.744;2022-12-24T16:49:58;3.00;99.90
76936;DHT22;65881;52.438;16.744;2022-12-24T16:52:28;3.10;99.90
76936;DHT22;65881;52.438;16.744;2022-12-24T16:54:55;3.00;99.90
76936;DHT22;65881;52.438;16.744;2022-12-24T16:57:22;3.00;99.90
76936;DHT22;65881;52.438;16.744;2022-12-24T16:59:49;3.00;99.90
76936;DHT22;65881;52.438;16.744;2022-12-24T17:02:19;3.00;99.90
76936;DHT22;65881;52.438;16.744;2022-12-24T17:04:46;3.00;99.90
76936;DHT22;65881;52.438;16.744;2022-12-24T17:07:17;3.00;99.90
76936;DHT22;65881;52.438;16.744;2022-12-24T17:09:43;3.00;99.90
76936;DHT22;65881;52.438;16.744;2022-12-24T17:12:10;3.00;99.90
76936;DHT22;65881;52.438;16.744;2022-12-24T17:14:41;3.10;99.90
76936;DHT22;65881;52.438;16.744;2022-12-24T17:17:19;3.10;99.90
76936;DHT22;65881;52.438;16.744;2022-12-24T17:19:47;3.00;99.90
76936;DHT22;65881;52.438;16.744;2022-12-24T17:22:13;3.00;99.90
76936;DHT22;65881;52.438;16.744;2022-12-24T17:24:40;3.00;99.90
76936;DHT22;65881;52.438;16.744;2022-12-24T17:27:05;3.00;99.90
76936;DHT22;65881;52.438;16.744;2022-12-24T17:29:37;3.00;99.90
76936;DHT22;65881;52.438;16.744;2022-12-24T17:32:03;3.00;99.90
76936;DHT22;65881;52.438;16.744;2022-12-24T17:34:35;3.00;99.90
76936;DHT22;65881;52.438;16.744;2022-12-24T17:37:04;3.00;99.90
76936;DHT22;65881;52.438;16.744;2022-12-24T17:39:29;3.10;99.90
76936;DHT22;65881;52.438;16.744;2022-12-24T17:41:55;3.10;99.90
76936;DHT22;65881;52.438;16.744;2022-12-24T17:44:21;3.10;99.90
76936;DHT22;65881;52.438;16.744;2022-12-24T17:46:53;3.10;99.90
76936;DHT22;65881;52.438;16.744;2022-12-24T17:49:34;3.10;99.90
76936;DHT22;65881;52.438;16.744;2022-12-24T17:52:06;3.10;99.90
76936;DHT22;65881;52.438;16.744;2022-12-24T17:54:32;3.00;99.90
76936;DHT22;65881;52.438;16.744;2022-12-24T17:56:57;3.00;99.90
76936;DHT22;65881;52.438;16.744;2022-12-24T17:59:24;3.00;99.90
76936;DHT22;65881;52.438;16.744;2022-12-24T18:01:50;3.00;99.90
76936;DHT22;65881;52.438;16.744;2022-12-24T18:04:15;3.00;99.90
76936;DHT22;65881;52.438;16.744;2022-12-24T18:06:47;3.00;99.90
76936;DHT22;65881;52.438;16.744;2022-12-24T18:09:19;3.10;99.90
76936;DHT22;65881;52.438;16.744;2022-12-24T18:11:45;3.10;99.90
76936;DHT22;65881;52.438;16.744;2022-12-24T18:14:14;3.10;99.90
76936;DHT22;65881;52.438;16.744;2022-12-24T18:17:00;3.10;99.90
76936;DHT22;65881;52.438;16.744;2022-12-24T18:19:25;3.10;99.90
76936;DHT22;65881;52.438;16.744;2022-12-24T18:21:51;3.10;99.90
76936;DHT22;65881;52.438;16.744;2022-12-24T18:24:23;3.10;99.90
76936;DHT22;65881;52.438;16.744;2022-12-24T18:26:54;3.10;99.90
76936;DHT22;65881;52.438;16.744;2022-12-24T18:32:04;3.10;99.90
76936;DHT22;65881;52.438;16.744;2022-12-24T18:34:30;3.00;99.90
76936;DHT22;65881;52.438;16.744;2022-12-24T18:36:56;3.10;99.90